Time;durP1;ratioP1;P1;durP2;ratioP2;P2;SDS_P1;SDS_P2;PMS_P1;PMS_P2;Temp;Humidity;BMP_temperature;BMP_pressure;BME280_temperature;BME280_humidity;BME280_pressure;Samples;Min_cycle;Max_cycle;Signal;HPM_P1;HPM_P2
2023/03/03 00:02:24;;;;;;;1.70;0.40;;;2.00;99.90;;;;;;6155174;23;20017;-81
2023/03/03 00:04:49;;;;;;;1.90;0.60;;;2.00;99.90;;;;;;6155641;23;20075;-81
2023/03/03 00:07:21;;;;;;;1.50;0.40;;;2.00;99.90;;;;;;6155046;23;20101;-81
2023/03/03 00:09:47;;;;;;;0.75;0.70;;;2.20;99.90;;;;;;6155826;23;20504;-81
2023/03/03 00:12:20;;;;;;;1.13;0.82;;;1.90;99.90;;;;;;6156697;23;20345;-82
2023/03/03 00:14:45;;;;;;;1.85;0.32;;;1.90;99.90;;;;;;6157044;23;20060;-81
2023/03/03 00:17:21;;;;;;;1.90;0.27;;;1.90;99.90;;;;;;6154830;23;20018;-84
2023/03/03 00:19:47;;;;;;;0.88;0.68;;;1.90;99.90;;;;;;6180389;23;20017;-81
2023/03/03 00:22:35;;;;;;;0.77;0.52;;;1.90;99.90;;;;;;6154922;23;20018;-82
2023/03/03 00:25:19;;;;;;;;;;;1.90;99.90;;;;;;6155246;23;20013;-81
2023/03/03 00:27:45;;;;;;;1.33;0.30;;;1.90;99.90;;;;;;6130456;23;19917;-82
2023/03/03 00:30:24;;;;;;;5.23;1.13;;;2.00;99.90;;;;;;6179700;23;20465;-85
2023/03/03 00:32:51;;;;;;;4.22;1.35;;;2.90;99.90;;;;;;6155705;23;20229;-81
2023/03/03 00:35:29;;;;;;;1.88;0.75;;;2.00;99.90;;;;;;6156294;23;20013;-81
2023/03/03 00:38:00;;;;;;;2.13;0.57;;;2.80;99.90;;;;;;6154932;23;20088;-81
2023/03/03 00:40:40;;;;;;;2.05;0.40;;;2.00;99.90;;;;;;6130148;23;20465;-81
2023/03/03 00:43:23;;;;;;;1.15;0.63;;;2.00;99.90;;;;;;6130573;23;20448;-81
2023/03/03 00:45:55;;;;;;;1.15;0.52;;;2.20;99.90;;;;;;6154979;23;20021;-81
2023/03/03 00:48:25;;;;;;;1.00;0.52;;;2.00;99.90;;;;;;6154409;23;20096;-81
2023/03/03 00:50:53;;;;;;;0.38;0.38;;;2.00;99.90;;;;;;6179868;23;20056;-81
2023/03/03 00:53:22;;;;;;;0.98;0.47;;;2.00;99.90;;;;;;6179463;23;20072;-81
2023/03/03 00:55:49;;;;;;;1.60;0.50;;;3.10;99.90;;;;;;6155108;23;20068;-81
2023/03/03 00:58:17;;;;;;;3.78;0.57;;;2.00;99.90;;;;;;6154712;23;20152;-84
2023/03/03 01:00:43;;;;;;;0.73;0.50;;;2.00;99.90;;;;;;6130061;23;20498;-81
2023/03/03 01:03:14;;;;;;;0.35;0.20;;;3.50;99.90;;;;;;6130345;23;20048;-82
2023/03/03 01:05:40;;;;;;;1.15;0.45;;;2.00;99.90;;;;;;6154601;23;20408;-81
2023/03/03 01:08:06;;;;;;;1.60;0.40;;;2.00;99.90;;;;;;6179466;23;20061;-81
2023/03/03 01:10:36;;;;;;;2.00;0.83;;;2.10;99.90;;;;;;6129743;23;20060;-81
2023/03/03 01:13:03;;;;;;;0.88;0.40;;;2.70;99.90;;;;;;6155284;23;20072;-81
2023/03/03 01:15:28;;;;;;;;;;;2.10;99.90;;;;;;6155035;23;20021;-81
2023/03/03 01:17:54;;;;;;;2.60;0.70;;;2.10;99.90;;;;;;6154073;23;20322;-81
2023/03/03 01:20:20;;;;;;;2.13;0.87;;;2.70;99.90;;;;;;6154599;23;20022;-84
2023/03/03 01:22:46;;;;;;;0.40;0.40;;;2.10;99.90;;;;;;6154858;23;20017;-81
2023/03/03 01:25:12;;;;;;;0.63;0.40;;;2.10;99.90;;;;;;6154717;23;20307;-81
2023/03/03 01:27:38;;;;;;;2.13;1.33;;;2.10;99.90;;;;;;6153993;23;20104;-82
2023/03/03 01:30:05;;;;;;;0.30;0.30;;;2.10;99.90;;;;;;6154191;23;20017;-82
2023/03/03 01:32:31;;;;;;;0.60;0.57;;;2.10;99.90;;;;;;6155624;23;20017;-81
2023/03/03 01:34:57;;;;;;;1.70;0.83;;;3.10;99.90;;;;;;6130214;23;20136;-81
2023/03/03 01:37:22;;;;;;;0.20;0.20;;;2.10;99.90;;;;;;6153969;23;20032;-82
2023/03/03 01:39:57;;;;;;;1.07;0.87;;;2.90;99.90;;;;;;6179169;23;20394;-81
2023/03/03 01:42:24;;;;;;;0.22;0.22;;;2.10;99.90;;;;;;6154454;23;20454;-84
2023/03/03 01:45:08;;;;;;;;;;;2.90;99.90;;;;;;6130490;23;20328;-81
2023/03/03 01:47:34;;;;;;;1.60;1.05;;;2.40;99.90;;;;;;6129375;23;20344;-81
2023/03/03 01:50:09;;;;;;;0.33;0.27;;;3.40;99.90;;;;;;6179221;23;20085;-81
2023/03/03 01:52:42;;;;;;;0.13;0.13;;;2.10;99.90;;;;;;6155233;23;20335;-81
2023/03/03 01:55:14;;;;;;;2.38;0.60;;;2.10;99.90;;;;;;6154919;23;20354;-81
2023/03/03 01:57:45;;;;;;;0.50;0.50;;;2.10;99.90;;;;;;6129404;23;20017;-81
2023/03/03 02:00:11;;;;;;;1.73;0.93;;;2.10;99.90;;;;;;6154964;23;20072;-81
2023/03/03 02:02:39;;;;;;;1.10;0.35;;;2.10;99.90;;;;;;6129478;23;20022;-81
2023/03/03 02:05:06;;;;;;;1.15;0.50;;;2.10;99.90;;;;;;6155923;23;20041;-81
2023/03/03 02:07:31;;;;;;;;;;;2.10;99.90;;;;;;6178915;23;20092;-82
2023/03/03 02:10:14;;;;;;;1.05;1.05;;;2.10;99.90;;;;;;6154275;23;20344;-81
2023/03/03 02:12:47;;;;;;;1.08;0.43;;;2.10;99.90;;;;;;6155502;23;20021;-81
2023/03/03 02:15:34;;;;;;;0.55;0.30;;;2.00;99.90;;;;;;6154651;23;20088;-81
2023/03/03 02:18:27;;;;;;;4.78;1.25;;;2.00;99.90;;;;;;6153718;23;20018;-81
2023/03/03 02:21:02;;;;;;;0.63;0.40;;;2.10;99.90;;;;;;6151721;23;20021;-81
2023/03/03 02:23:58;;;;;;;2.75;0.60;;;2.10;99.90;;;;;;6153861;23;20022;-84
2023/03/03 02:26:26;;;;;;;1.05;0.40;;;2.00;99.90;;;;;;6154523;23;20068;-81
2023/03/03 02:28:52;;;;;;;1.17;0.73;;;2.10;99.90;;;;;;6153526;23;20435;-81
2023/03/03 02:31:25;;;;;;;2.80;0.30;;;2.10;99.90;;;;;;6154129;23;20027;-81
2023/03/03 02:33:52;;;;;;;0.90;0.90;;;2.10;99.90;;;;;;6154935;23;20357;-81
2023/03/03 02:36:21;;;;;;;0.30;0.30;;;2.10;99.90;;;;;;6178693;23;20059;-81
2023/03/03 02:38:50;;;;;;;2.65;0.20;;;2.10;99.90;;;;;;6153278;23;20053;-81
2023/03/03 02:41:32;;;;;;;1.45;0.57;;;2.50;99.90;;;;;;6153995;23;20017;-81
2023/03/03 02:44:02;;;;;;;0.35;0.20;;;2.10;99.90;;;;;;6154083;23;20580;-82
2023/03/03 02:46:35;;;;;;;0.47;0.40;;;2.00;99.90;;;;;;6155291;23;20076;-81
2023/03/03 02:49:02;;;;;;;0.95;0.52;;;2.10;99.90;;;;;;6155294;23;20024;-81
2023/03/03 02:51:29;;;;;;;2.25;0.77;;;2.20;99.90;;;;;;6178669;23;20048;-81
2023/03/03 02:53:54;;;;;;;2.00;0.20;;;2.10;99.90;;;;;;6128919;23;20021;-81
2023/03/03 02:56:20;;;;;;;0.70;0.30;;;2.00;99.90;;;;;;6154000;23;20394;-81
2023/03/03 02:58:46;;;;;;;0.50;0.27;;;2.80;99.90;;;;;;6153230;23;20025;-81
2023/03/03 03:01:12;;;;;;;0.20;0.20;;;2.00;99.90;;;;;;6154023;23;20253;-81
2023/03/03 03:03:37;;;;;;;0.10;0.10;;;2.60;99.90;;;;;;6128871;23;20014;-81
2023/03/03 03:06:03;;;;;;;0.40;0.23;;;2.10;99.90;;;;;;6128910;23;20021;-81
2023/03/03 03:08:29;;;;;;;1.20;0.40;;;2.00;99.90;;;;;;6153848;23;20017;-81
2023/03/03 03:10:56;;;;;;;0.77;0.37;;;2.00;99.90;;;;;;6128473;23;20056;-81
2023/03/03 03:13:23;;;;;;;1.65;0.30;;;1.90;99.90;;;;;;6153921;23;20398;-81
2023/03/03 03:15:49;;;;;;;0.52;0.20;;;2.80;99.90;;;;;;6128609;23;20021;-81
2023/03/03 03:18:15;;;;;;;0.27;0.27;;;1.90;99.90;;;;;;6153658;23;20025;-80
2023/03/03 03:20:41;;;;;;;0.20;0.20;;;2.60;99.90;;;;;;6128509;23;20030;-81
2023/03/03 03:23:08;;;;;;;0.10;0.10;;;2.90;99.90;;;;;;6153886;23;20018;-81
2023/03/03 03:25:36;;;;;;;0.77;0.47;;;2.70;99.90;;;;;;6178774;23;20017;-81
2023/03/03 03:28:02;;;;;;;0.10;0.10;;;2.20;99.90;;;;;;6153754;23;20048;-81
2023/03/03 03:30:28;;;;;;;0.87;0.20;;;1.80;99.90;;;;;;6153453;23;20439;-81
2023/03/03 03:32:54;;;;;;;0.00;0.00;;;1.80;99.90;;;;;;6153074;23;20063;-81
2023/03/03 03:35:19;;;;;;;0.67;0.63;;;1.80;99.90;;;;;;6129182;23;20022;-82
2023/03/03 03:37:45;;;;;;;0.10;0.10;;;2.40;99.90;;;;;;6153293;23;20017;-81
2023/03/03 03:40:11;;;;;;;0.23;0.10;;;2.00;99.90;;;;;;6153277;23;20057;-81
2023/03/03 03:42:40;;;;;;;0.30;0.30;;;1.90;99.90;;;;;;6129004;23;20024;-81
2023/03/03 03:45:06;;;;;;;1.05;0.47;;;2.60;99.90;;;;;;6153682;23;20028;-80
2023/03/03 03:47:32;;;;;;;1.30;0.15;;;1.90;99.90;;;;;;6153772;23;20017;-81
2023/03/03 03:49:57;;;;;;;0.10;0.10;;;2.50;99.90;;;;;;6128269;23;20076;-81
2023/03/03 03:52:23;;;;;;;0.20;0.20;;;1.90;99.90;;;;;;6153742;23;20018;-81
2023/03/03 03:54:49;;;;;;;1.40;0.70;;;3.30;99.90;;;;;;6128697;23;20018;-81
2023/03/03 03:57:14;;;;;;;0.27;0.27;;;1.90;99.90;;;;;;6153794;23;20045;-81
2023/03/03 03:59:40;;;;;;;0.73;0.37;;;2.40;99.90;;;;;;6177720;23;20024;-84
2023/03/03 04:02:06;;;;;;;0.97;0.97;;;0.70;99.90;;;;;;6153233;23;20442;-81
2023/03/03 04:04:31;;;;;;;0.60;0.60;;;2.60;99.90;;;;;;6153644;23;20017;-80
2023/03/03 04:06:58;;;;;;;0.10;0.10;;;1.80;99.90;;;;;;6153293;23;20018;-82
2023/03/03 04:09:24;;;;;;;1.77;0.30;;;2.80;99.90;;;;;;6153515;23;20018;-81
2023/03/03 04:11:49;;;;;;;0.20;0.10;;;1.80;99.90;;;;;;6152997;23;20064;-81
2023/03/03 04:14:18;;;;;;;0.60;0.20;;;1.70;99.90;;;;;;6153827;23;20076;-81
2023/03/03 04:16:44;;;;;;;0.15;0.10;;;2.40;99.90;;;;;;6179340;23;20018;-84
2023/03/03 04:19:10;;;;;;;2.33;0.47;;;1.70;99.90;;;;;;6180046;23;20017;-81
2023/03/03 04:21:35;;;;;;;0.17;0.17;;;1.60;99.90;;;;;;6180180;23;20036;-81
2023/03/03 04:24:01;;;;;;;0.20;0.20;;;1.80;99.90;;;;;;6154873;23;20349;-81
2023/03/03 04:26:27;;;;;;;0.63;0.43;;;1.60;99.90;;;;;;6179680;23;20013;-82
2023/03/03 04:28:53;;;;;;;0.10;0.10;;;1.70;99.90;;;;;;6154371;23;20013;-81
2023/03/03 04:31:19;;;;;;;0.23;0.17;;;2.80;99.90;;;;;;6129863;23;20021;-81
2023/03/03 04:33:45;;;;;;;0.20;0.20;;;1.80;99.90;;;;;;6154688;23;20064;-84
2023/03/03 04:36:10;;;;;;;0.73;0.10;;;1.60;99.90;;;;;;6179254;23;20018;-85
2023/03/03 04:38:36;;;;;;;0.40;0.17;;;1.60;99.90;;;;;;6154642;23;20517;-81
2023/03/03 04:41:02;;;;;;;0.60;0.20;;;1.60;99.90;;;;;;6155449;23;20014;-81
2023/03/03 04:43:28;;;;;;;0.37;0.37;;;1.60;99.90;;;;;;6179476;23;20113;-81
2023/03/03 04:45:54;;;;;;;0.73;0.70;;;1.60;99.90;;;;;;6154075;23;20073;-81
2023/03/03 04:48:19;;;;;;;0.00;0.00;;;2.00;99.90;;;;;;6129963;23;20473;-81
2023/03/03 04:50:45;;;;;;;0.30;0.30;;;1.80;99.90;;;;;;6155939;23;20020;-81
2023/03/03 04:53:11;;;;;;;0.27;0.20;;;1.50;99.90;;;;;;6154030;23;20022;-81
2023/03/03 04:55:37;;;;;;;0.10;0.10;;;1.50;99.90;;;;;;6154059;23;20064;-81
2023/03/03 04:58:03;;;;;;;1.75;0.68;;;2.80;99.90;;;;;;6153742;23;20100;-81
2023/03/03 05:00:29;;;;;;;0.20;0.20;;;3.00;99.90;;;;;;6155600;23;20024;-81
2023/03/03 05:02:55;;;;;;;0.17;0.17;;;1.50;99.90;;;;;;6154070;23;20048;-81
2023/03/03 05:05:21;;;;;;;1.40;0.50;;;2.00;99.90;;;;;;6154494;23;20075;-81
2023/03/03 05:07:47;;;;;;;0.90;0.90;;;1.40;99.90;;;;;;6154524;23;20052;-81
2023/03/03 05:10:12;;;;;;;0.13;0.10;;;1.50;99.90;;;;;;6154087;23;20021;-80
2023/03/03 05:12:38;;;;;;;0.47;0.13;;;1.40;99.90;;;;;;6154055;23;20025;-81
2023/03/03 05:15:05;;;;;;;0.00;0.00;;;1.40;99.90;;;;;;6178738;23;20013;-81
2023/03/03 05:17:31;;;;;;;;;;;1.40;99.90;;;;;;6154532;23;20324;-81
2023/03/03 05:19:56;;;;;;;0.80;0.13;;;1.30;99.90;;;;;;6104923;23;19983;-81
2023/03/03 05:22:23;;;;;;;0.83;0.40;;;1.70;99.90;;;;;;6153952;23;20076;-82
2023/03/03 05:24:49;;;;;;;0.40;0.35;;;1.30;99.90;;;;;;6154157;23;20056;-81
2023/03/03 05:27:15;;;;;;;1.13;0.10;;;1.80;99.90;;;;;;6129075;23;20469;-81
2023/03/03 05:29:41;;;;;;;0.28;0.28;;;1.60;99.90;;;;;;6154594;23;20117;-81
2023/03/03 05:32:07;;;;;;;0.20;0.20;;;1.20;99.90;;;;;;6153925;23;20502;-81
2023/03/03 05:34:33;;;;;;;0.20;0.20;;;2.10;99.90;;;;;;6154687;23;20450;-81
2023/03/03 05:36:58;;;;;;;0.97;0.30;;;1.20;99.90;;;;;;6154164;23;20033;-81
2023/03/03 05:39:24;;;;;;;0.00;0.00;;;1.50;99.90;;;;;;6179908;23;20017;-81
2023/03/03 05:41:50;;;;;;;0.00;0.00;;;1.20;99.90;;;;;;6154494;23;20024;-81
2023/03/03 05:44:16;;;;;;;1.13;0.30;;;1.20;99.90;;;;;;6153571;23;20457;-81
2023/03/03 05:46:41;;;;;;;0.00;0.00;;;2.00;99.90;;;;;;6154812;23;20389;-81
2023/03/03 05:49:07;;;;;;;1.93;0.30;;;1.20;99.90;;;;;;6154016;23;20060;-81
2023/03/03 05:51:33;;;;;;;0.67;0.63;;;1.80;99.90;;;;;;6154203;23;20045;-81
2023/03/03 05:53:59;;;;;;;0.10;0.10;;;1.70;99.90;;;;;;6154037;23;20021;-81
2023/03/03 05:56:25;;;;;;;0.27;0.27;;;1.70;99.90;;;;;;6154442;23;20088;-80
2023/03/03 05:58:50;;;;;;;0.60;0.10;;;1.80;99.90;;;;;;6129999;23;20022;-80
2023/03/03 06:01:16;;;;;;;0.40;0.10;;;1.80;99.90;;;;;;6153489;23;20029;-81
2023/03/03 06:03:42;;;;;;;0.20;0.10;;;0.90;99.90;;;;;;6154364;23;20021;-81
2023/03/03 06:06:08;;;;;;;0.73;0.27;;;0.90;99.90;;;;;;6153845;23;20312;-81
2023/03/03 06:08:33;;;;;;;0.40;0.40;;;2.40;99.90;;;;;;6154479;23;20021;-81
2023/03/03 06:10:59;;;;;;;0.10;0.10;;;0.90;99.90;;;;;;6153940;23;20018;-85
2023/03/03 06:13:26;;;;;;;0.30;0.30;;;0.90;99.90;;;;;;6177522;23;20013;-83
2023/03/03 06:15:51;;;;;;;0.35;0.35;;;0.90;99.90;;;;;;6154699;23;20025;-81
2023/03/03 06:18:17;;;;;;;0.50;0.13;;;1.60;99.90;;;;;;6153660;23;20048;-81
2023/03/03 06:20:43;;;;;;;0.20;0.10;;;2.10;99.90;;;;;;6154296;23;20120;-81
2023/03/03 06:23:09;;;;;;;0.10;0.10;;;0.90;99.90;;;;;;6153483;23;20022;-81
2023/03/03 06:25:35;;;;;;;0.30;0.27;;;0.80;99.90;;;;;;6154291;23;20031;-81
2023/03/03 06:28:01;;;;;;;0.10;0.03;;;1.90;99.90;;;;;;6153842;23;20055;-84
2023/03/03 06:30:29;;;;;;;0.17;0.17;;;0.80;99.90;;;;;;6153629;23;20013;-81
2023/03/03 06:32:55;;;;;;;0.40;0.13;;;0.80;99.90;;;;;;6178502;23;20071;-81
2023/03/03 06:35:21;;;;;;;0.30;0.13;;;0.80;99.90;;;;;;6152897;23;20096;-81
2023/03/03 06:37:49;;;;;;;0.40;0.20;;;0.90;99.90;;;;;;6153537;23;20079;-83
2023/03/03 06:40:15;;;;;;;1.10;0.10;;;0.90;99.90;;;;;;6128652;23;20445;-82
2023/03/03 06:42:43;;;;;;;0.47;0.20;;;1.80;99.90;;;;;;6155395;23;20017;-81
2023/03/03 06:45:10;;;;;;;0.30;0.20;;;0.80;99.90;;;;;;6128289;23;20472;-83
2023/03/03 06:47:35;;;;;;;0.52;0.20;;;0.90;99.90;;;;;;6154003;23;20056;-83
2023/03/03 06:50:01;;;;;;;0.83;0.30;;;0.90;99.90;;;;;;6153886;23;20025;-82
2023/03/03 06:52:27;;;;;;;0.10;0.10;;;2.40;99.90;;;;;;6128955;23;20040;-82
2023/03/03 06:54:56;;;;;;;1.70;0.67;;;2.10;99.90;;;;;;6153891;23;20025;-83
2023/03/03 06:57:31;;;;;;;0.00;0.00;;;2.10;99.90;;;;;;6153497;23;20378;-80
2023/03/03 07:00:10;;;;;;;0.10;0.00;;;1.00;99.90;;;;;;6152547;23;20022;-82
2023/03/03 07:02:35;;;;;;;0.55;0.35;;;1.10;99.90;;;;;;6152326;23;20018;-83
2023/03/03 07:05:05;;;;;;;0.23;0.17;;;1.50;99.90;;;;;;6153137;23;20024;-86
2023/03/03 07:07:31;;;;;;;0.60;0.60;;;1.90;99.90;;;;;;6152856;23;20021;-85
2023/03/03 07:09:56;;;;;;;0.67;0.20;;;1.20;99.90;;;;;;6153006;23;20148;-82
2023/03/03 07:12:26;;;;;;;0.17;0.17;;;1.40;99.90;;;;;;6177850;23;20032;-87
2023/03/03 07:15:00;;;;;;;0.25;0.22;;;1.20;99.90;;;;;;6153175;23;20028;-86
2023/03/03 07:17:26;;;;;;;0.00;0.00;;;1.30;99.90;;;;;;6128778;23;20014;-89
2023/03/03 07:19:52;;;;;;;0.10;0.10;;;2.00;99.90;;;;;;6178624;23;20390;-86
2023/03/03 07:22:18;;;;;;;0.63;0.10;;;1.30;99.90;;;;;;6154744;23;20029;-86
2023/03/03 07:24:47;;;;;;;1.20;0.17;;;1.50;99.90;;;;;;6153417;23;20324;-86
2023/03/03 07:27:28;;;;;;;0.10;0.10;;;1.40;99.90;;;;;;6152963;23;20100;-86
2023/03/03 07:30:19;;;;;;;0.10;0.10;;;1.40;99.90;;;;;;6153271;23;20501;-86
2023/03/03 07:32:46;;;;;;;0.17;0.17;;;1.60;99.90;;;;;;6127870;23;20077;-86
2023/03/03 07:35:37;;;;;;;0.47;0.47;;;1.70;99.90;;;;;;6152789;23;20017;-86
2023/03/03 07:38:32;;;;;;;2.00;0.38;;;1.70;99.90;;;;;;6153396;23;20351;-87
2023/03/03 07:41:00;;;;;;;0.25;0.20;;;1.70;99.90;;;;;;6153312;23;20470;-85
2023/03/03 07:43:44;;;;;;;0.00;0.00;;;1.70;99.90;;;;;;6152708;23;20025;-85
2023/03/03 07:46:09;;;;;;;1.98;0.30;;;1.70;99.90;;;;;;6152744;23;20056;-86
2023/03/03 07:48:40;;;;;;;0.20;0.20;;;1.80;99.90;;;;;;6152431;23;20021;-86
2023/03/03 07:51:24;;;;;;;0.20;0.20;;;1.80;99.90;;;;;;6129461;23;20018;-86
2023/03/03 07:53:51;;;;;;;0.88;0.10;;;1.60;99.90;;;;;;6130373;23;20024;-87
2023/03/03 07:56:28;;;;;;;;;;;3.20;99.90;;;;;;6130507;23;20339;-87
2023/03/03 07:58:55;;;;;;;0.38;0.35;;;2.00;99.90;;;;;;6154220;23;20389;-86
2023/03/03 08:01:39;;;;;;;0.10;0.10;;;2.50;99.90;;;;;;6130310;23;20324;-86
2023/03/03 08:04:19;;;;;;;0.10;0.10;;;3.30;99.90;;;;;;6130348;23;20128;-86
2023/03/03 08:06:49;;;;;;;0.10;0.10;;;2.10;99.90;;;;;;6130587;23;20439;-87
2023/03/03 08:09:25;;;;;;;0.15;0.10;;;2.10;99.90;;;;;;6129875;23;20022;-89
2023/03/03 08:11:54;;;;;;;1.90;0.25;;;2.20;99.90;;;;;;6130145;23;20013;-87
2023/03/03 08:14:33;;;;;;;0.10;0.10;;;2.30;99.90;;;;;;6130133;23;20072;-87
2023/03/03 08:16:59;;;;;;;0.52;0.00;;;2.30;99.90;;;;;;6129478;23;20029;-86
2023/03/03 08:19:26;;;;;;;0.43;0.40;;;2.80;99.90;;;;;;6129522;23;20524;-86
2023/03/03 08:22:02;;;;;;;0.77;0.13;;;2.40;99.90;;;;;;6179530;23;20036;-87
2023/03/03 08:24:27;;;;;;;0.15;0.10;;;2.50;99.90;;;;;;6155878;23;20049;-88
2023/03/03 08:26:53;;;;;;;0.17;0.13;;;2.50;99.90;;;;;;6154967;23;20014;-86
2023/03/03 08:29:19;;;;;;;0.10;0.10;;;2.50;99.90;;;;;;6154583;23;20040;-86
2023/03/03 08:31:44;;;;;;;0.33;0.33;;;2.50;99.90;;;;;;6154813;23;20088;-86
2023/03/03 08:34:10;;;;;;;0.00;0.00;;;3.10;99.90;;;;;;6179789;23;20072;-87
2023/03/03 08:36:36;;;;;;;0.10;0.00;;;2.60;99.90;;;;;;6154357;23;20033;-87
2023/03/03 08:39:03;;;;;;;0.30;0.10;;;2.60;99.90;;;;;;6130183;23;20021;-87
2023/03/03 08:41:29;;;;;;;0.30;0.30;;;2.70;99.90;;;;;;6129935;23;20018;-85
2023/03/03 08:43:55;;;;;;;1.17;0.27;;;2.90;99.90;;;;;;6154850;23;20057;-84
2023/03/03 08:46:20;;;;;;;0.00;0.00;;;3.10;99.90;;;;;;6129833;23;20029;-83
2023/03/03 08:48:46;;;;;;;0.10;0.10;;;3.20;99.90;;;;;;6179527;23;20024;-82
2023/03/03 08:51:12;;;;;;;0.17;0.10;;;3.30;99.90;;;;;;6154785;23;20017;-84
2023/03/03 08:53:37;;;;;;;0.20;0.20;;;3.30;99.90;;;;;;6154082;23;20021;-85
2023/03/03 08:56:05;;;;;;;0.57;0.10;;;3.20;99.90;;;;;;6156370;23;20017;-87
2023/03/03 08:58:31;;;;;;;0.25;0.22;;;3.20;99.90;;;;;;6129285;23;20014;-88
2023/03/03 09:00:58;;;;;;;0.30;0.30;;;3.10;99.90;;;;;;6130000;23;20148;-87
2023/03/03 09:03:23;;;;;;;1.08;0.43;;;3.10;99.90;;;;;;6153438;23;20463;-88
2023/03/03 09:05:49;;;;;;;0.23;0.10;;;3.00;99.90;;;;;;6154749;23;20099;-87
2023/03/03 09:08:15;;;;;;;0.30;0.30;;;2.90;99.90;;;;;;6154627;23;20013;-87
2023/03/03 09:10:41;;;;;;;0.30;0.07;;;2.90;99.90;;;;;;6154087;23;20056;-88
2023/03/03 09:13:15;;;;;;;0.30;0.30;;;2.90;99.90;;;;;;6153079;23;20064;-88
2023/03/03 09:15:46;;;;;;;2.75;0.30;;;2.80;99.90;;;;;;6129092;23;20022;-88
2023/03/03 09:18:42;;;;;;;0.03;0.03;;;2.80;99.90;;;;;;6154091;23;20040;-88
2023/03/03 09:21:21;;;;;;;1.98;0.40;;;2.80;99.90;;;;;;6141951;23;20094;-88
2023/03/03 09:23:56;;;;;;;0.00;0.00;;;2.80;99.90;;;;;;6179011;23;20017;-89
2023/03/03 09:26:27;;;;;;;0.10;0.10;;;3.70;99.90;;;;;;6129846;23;20017;-85
2023/03/03 09:29:13;;;;;;;0.28;0.17;;;3.60;99.90;;;;;;6179506;23;20014;-91
2023/03/03 09:31:41;;;;;;;1.95;0.15;;;2.80;99.90;;;;;;6119311;23;20017;-85
2023/03/03 09:34:27;;;;;;;0.00;0.00;;;2.90;99.90;;;;;;6129804;23;20017;-85
2023/03/03 09:36:54;;;;;;;0.30;0.22;;;2.90;99.90;;;;;;6129861;23;20100;-85
2023/03/03 09:39:24;;;;;;;;;;;2.90;99.90;;;;;;6154769;23;20061;-88
2023/03/03 09:42:08;;;;;;;0.17;0.17;;;2.90;99.90;;;;;;6129490;23;19991;-86
2023/03/03 09:44:41;;;;;;;0.17;0.10;;;3.00;99.90;;;;;;6154329;23;20341;-88
2023/03/03 09:47:44;;;;;;;0.10;0.10;;;3.00;99.90;;;;;;6179325;23;20085;-86
2023/03/03 09:50:35;;;;;;;0.50;0.30;;;3.10;99.90;;;;;;6154297;23;20327;-86
2023/03/03 09:53:42;;;;;;;0.40;0.20;;;3.10;99.90;;;;;;6154872;23;20020;-87
2023/03/03 09:56:37;;;;;;;0.10;0.10;;;3.20;99.90;;;;;;6107252;23;20024;-87
2023/03/03 09:59:29;;;;;;;0.40;0.20;;;3.20;99.90;;;;;;6123078;23;20036;-87
2023/03/03 10:02:14;;;;;;;0.45;0.30;;;3.20;99.90;;;;;;6154882;23;20021;-87
2023/03/03 10:05:02;;;;;;;0.43;0.40;;;3.30;99.90;;;;;;6154301;23;20081;-87
2023/03/03 10:07:31;;;;;;;0.75;0.65;;;3.40;99.90;;;;;;6153851;23;20032;-89
2023/03/03 10:10:09;;;;;;;0.40;0.32;;;3.50;99.90;;;;;;6154521;23;20014;-86
2023/03/03 10:12:50;;;;;;;0.35;0.13;;;3.50;99.90;;;;;;6154318;23;20024;-88
2023/03/03 10:15:37;;;;;;;0.35;0.22;;;3.60;99.90;;;;;;6130168;23;20100;-88
2023/03/03 10:18:27;;;;;;;0.47;0.30;;;3.70;99.90;;;;;;6129469;23;20053;-88
2023/03/03 10:21:08;;;;;;;0.28;0.28;;;3.80;99.90;;;;;;6129472;23;20096;-88
2023/03/03 10:24:01;;;;;;;0.25;0.25;;;3.80;99.90;;;;;;6154141;23;20072;-88
2023/03/03 10:26:39;;;;;;;0.22;0.22;;;3.90;99.90;;;;;;6129985;23;20029;-87
2023/03/03 10:29:26;;;;;;;1.00;0.35;;;4.00;99.90;;;;;;6154412;23;20021;-88
2023/03/03 10:32:24;;;;;;;0.28;0.10;;;4.10;99.90;;;;;;6118938;23;20021;-88
2023/03/03 10:35:22;;;;;;;0.60;0.45;;;3.60;99.90;;;;;;6153116;23;20438;-84
2023/03/03 10:37:56;;;;;;;0.13;0.13;;;4.30;99.90;;;;;;6128926;23;20096;-87
2023/03/03 10:40:37;;;;;;;0.25;0.22;;;4.40;99.90;;;;;;6154224;23;20101;-88
2023/03/03 10:43:15;;;;;;;0.15;0.15;;;4.50;99.90;;;;;;6129502;23;20487;-88
2023/03/03 10:45:47;;;;;;;0.60;0.60;;;4.70;99.90;;;;;;6153688;23;20013;-89
2023/03/03 10:48:13;;;;;;;1.65;0.40;;;4.80;99.90;;;;;;6153657;23;20018;-88
2023/03/03 10:51:20;;;;;;;0.20;0.20;;;4.80;99.90;;;;;;6153385;23;20044;-89
2023/03/03 10:54:07;;;;;;;0.35;0.30;;;5.00;99.90;;;;;;6153739;23;20013;-88
2023/03/03 10:56:38;;;;;;;0.20;0.20;;;5.20;99.90;;;;;;6158401;23;20017;-84
2023/03/03 10:59:30;;;;;;;0.15;0.13;;;5.30;99.90;;;;;;6153484;23;20254;-86
2023/03/03 11:02:10;;;;;;;0.30;0.30;;;5.50;99.90;;;;;;6178638;23;20046;-86
2023/03/03 11:04:45;;;;;;;1.25;0.50;;;5.60;99.90;;;;;;6129577;23;20083;-86
2023/03/03 11:07:37;;;;;;;0.10;0.10;;;5.70;99.90;;;;;;6153896;23;20025;-86
2023/03/03 11:10:23;;;;;;;0.20;0.20;;;5.70;99.90;;;;;;6146253;23;20017;-86
2023/03/03 11:13:27;;;;;;;0.85;0.50;;;5.80;99.90;;;;;;6153277;23;20030;-87
2023/03/03 11:16:19;;;;;;;0.10;0.10;;;5.80;99.90;;;;;;6152656;23;20029;-86
2023/03/03 11:19:05;;;;;;;0.30;0.30;;;5.90;99.90;;;;;;6152710;23;20028;-86
2023/03/03 11:21:47;;;;;;;0.95;0.82;;;6.10;99.90;;;;;;6160179;23;20060;-83
2023/03/03 11:24:31;;;;;;;0.20;0.20;;;6.20;99.90;;;;;;6154237;23;20378;-85
2023/03/03 11:26:57;;;;;;;0.55;0.38;;;6.40;99.90;;;;;;6152640;23;20049;-86
2023/03/03 11:29:46;;;;;;;0.57;0.50;;;6.50;99.90;;;;;;6153851;23;20032;-86
2023/03/03 11:32:34;;;;;;;0.85;0.40;;;6.60;99.90;;;;;;6178665;23;20148;-86
2023/03/03 11:34:59;;;;;;;;;;;6.70;99.90;;;;;;6129240;23;20083;-86
2023/03/03 11:37:53;;;;;;;0.85;0.80;;;6.80;99.90;;;;;;6153705;23;20345;-86
2023/03/03 11:40:31;;;;;;;0.32;0.32;;;6.80;99.90;;;;;;6153880;23;20021;-86
2023/03/03 11:43:27;;;;;;;0.47;0.40;;;6.90;99.90;;;;;;6179474;23;20029;-81
2023/03/03 11:46:14;;;;;;;0.25;0.25;;;6.90;99.90;;;;;;6153293;23;20044;-84
2023/03/03 11:48:57;;;;;;;1.10;0.30;;;7.00;99.90;;;;;;6128875;23;20152;-84
2023/03/03 11:51:56;;;;;;;0.10;0.10;;;7.10;99.90;;;;;;6153196;23;20277;-85
2023/03/03 11:54:31;;;;;;;0.60;0.30;;;7.20;99.90;;;;;;6105461;23;20024;-87
2023/03/03 11:57:56;;;;;;;0.68;0.45;;;7.30;99.90;;;;;;6178084;23;20018;-83
2023/03/03 12:00:45;;;;;;;0.20;0.20;;;7.40;99.90;;;;;;6122467;23;20053;-85
2023/03/03 12:03:34;;;;;;;0.22;0.22;;;7.60;99.90;;;;;;6176730;23;20096;-85
2023/03/03 12:06:18;;;;;;;0.30;0.20;;;7.70;99.90;;;;;;6153108;23;20351;-84
2023/03/03 12:09:32;;;;;;;0.20;0.20;;;7.80;99.90;;;;;;6153632;23;20017;-83
2023/03/03 12:12:24;;;;;;;0.15;0.13;;;7.80;99.90;;;;;;6140231;23;20080;-86
2023/03/03 12:15:11;;;;;;;0.25;0.25;;;7.90;99.90;;;;;;6152816;23;20096;-89
2023/03/03 12:18:09;;;;;;;0.00;0.00;;;7.90;99.90;;;;;;6178585;23;20068;-91
2023/03/03 12:20:54;;;;;;;;;;;7.80;99.90;;;;;;6129719;23;20024;-88
2023/03/03 12:23:37;;;;;;;0.20;0.20;;;7.80;99.90;;;;;;6152729;23;20384;-91
2023/03/03 12:26:20;;;;;;;0.00;0.00;;;7.80;99.90;;;;;;6153199;23;20021;-91
2023/03/03 12:28:51;;;;;;;0.25;0.20;;;7.70;99.90;;;;;;6153870;23;20068;-91
2023/03/03 12:31:35;;;;;;;0.15;0.15;;;7.70;99.90;;;;;;6154157;23;20024;-91
2023/03/03 12:34:16;;;;;;;0.10;0.10;;;7.60;99.90;;;;;;6153619;23;20024;-90
2023/03/03 12:37:07;;;;;;;0.10;0.10;;;7.50;99.90;;;;;;6130044;23;20018;-90
2023/03/03 12:40:02;;;;;;;0.10;0.10;;;7.40;99.90;;;;;;6155309;23;20489;-91
2023/03/03 12:42:50;;;;;;;0.10;0.10;;;7.30;99.90;;;;;;6130752;23;20017;-90
2023/03/03 12:45:52;;;;;;;0.10;0.10;;;7.30;99.90;;;;;;6155249;23;20018;-91
2023/03/03 12:48:33;;;;;;;0.00;0.00;;;7.30;99.90;;;;;;6155505;23;20537;-91
2023/03/03 12:51:30;;;;;;;0.10;0.05;;;7.30;99.90;;;;;;6157182;23;20419;-91
2023/03/03 12:54:37;;;;;;;0.10;0.10;;;7.50;99.90;;;;;;6155438;23;20028;-91
2023/03/03 12:57:28;;;;;;;0.20;0.20;;;7.50;99.90;;;;;;6083783;23;20040;-91
2023/03/03 13:00:10;;;;;;;0.15;0.10;;;7.50;99.90;;;;;;6130553;23;20022;-91
2023/03/03 13:03:00;;;;;;;0.22;0.10;;;7.40;99.90;;;;;;6155477;23;20018;-91
2023/03/03 13:05:44;;;;;;;0.20;0.20;;;7.50;99.90;;;;;;6155706;23;20346;-91
2023/03/03 13:08:32;;;;;;;0.08;0.08;;;7.50;99.90;;;;;;6179749;23;20390;-91
2023/03/03 13:11:03;;;;;;;0.10;0.10;;;7.70;99.90;;;;;;6154794;23;20181;-91
2023/03/03 13:13:57;;;;;;;0.08;0.08;;;8.10;99.90;;;;;;6155256;23;20458;-91
2023/03/03 13:16:34;;;;;;;0.10;0.10;;;8.30;99.90;;;;;;6155408;23;20028;-91
2023/03/03 13:19:07;;;;;;;0.08;0.08;;;8.40;99.90;;;;;;6129556;23;20097;-91
2023/03/03 13:21:52;;;;;;;0.10;0.10;;;8.40;99.90;;;;;;6155126;23;20018;-91
2023/03/03 13:24:51;;;;;;;0.00;0.00;;;8.40;99.90;;;;;;6179592;23;20433;-91
2023/03/03 13:27:21;;;;;;;0.00;0.00;;;8.50;99.90;;;;;;6130202;23;20022;-91
2023/03/03 13:30:09;;;;;;;0.20;0.20;;;8.50;99.90;;;;;;6130392;23;20021;-91
2023/03/03 13:32:55;;;;;;;0.10;0.10;;;8.50;99.90;;;;;;6130665;23;20342;-91
2023/03/03 13:35:43;;;;;;;0.00;0.00;;;8.40;99.90;;;;;;6130106;23;20017;-91